Map

Track Data

SID SEASON NUMBER BASIN SUBBASIN NAME ISO_TIME NATURE LAT LON WMO_WIND WMO_PRES WMO_AGENCY TRACK_TYPE DIST2LAND LANDFALL IFLAG USA_AGENCY USA_ATCF_ID USA_LAT USA_LON USA_RECORD USA_STATUS USA_WIND USA_PRES USA_SSHS USA_R34_NE USA_R34_SE USA_R34_SW USA_R34_NW USA_R50_NE USA_R50_SE USA_R50_SW USA_R50_NW USA_R64_NE USA_R64_SE USA_R64_SW USA_R64_NW USA_POCI USA_ROCI USA_RMW USA_EYE TOKYO_LAT TOKYO_LON TOKYO_GRADE TOKYO_WIND TOKYO_PRES TOKYO_R50_DIR TOKYO_R50_LONG TOKYO_R50_SHORT TOKYO_R30_DIR TOKYO_R30_LONG TOKYO_R30_SHORT TOKYO_LAND CMA_LAT CMA_LON CMA_CAT CMA_WIND CMA_PRES HKO_LAT HKO_LON HKO_CAT HKO_WIND HKO_PRES NEWDELHI_LAT NEWDELHI_LON NEWDELHI_GRADE NEWDELHI_WIND NEWDELHI_PRES NEWDELHI_CI NEWDELHI_DP NEWDELHI_POCI REUNION_LAT REUNION_LON REUNION_TYPE REUNION_WIND REUNION_PRES REUNION_TNUM REUNION_CI REUNION_RMW REUNION_R34_NE REUNION_R34_SE REUNION_R34_SW REUNION_R34_NW REUNION_R50_NE REUNION_R50_SE REUNION_R50_SW REUNION_R50_NW REUNION_R64_NE REUNION_R64_SE REUNION_R64_SW REUNION_R64_NW BOM_LAT BOM_LON BOM_TYPE BOM_WIND BOM_PRES BOM_TNUM BOM_CI BOM_RMW BOM_R34_NE BOM_R34_SE BOM_R34_SW BOM_R34_NW BOM_R50_NE BOM_R50_SE BOM_R50_SW BOM_R50_NW BOM_R64_NE BOM_R64_SE BOM_R64_SW BOM_R64_NW BOM_ROCI BOM_POCI BOM_EYE BOM_POS_METHOD BOM_PRES_METHOD NADI_LAT NADI_LON NADI_CAT NADI_WIND NADI_PRES WELLINGTON_LAT WELLINGTON_LON WELLINGTON_WIND WELLINGTON_PRES DS824_LAT DS824_LON DS824_STAGE DS824_WIND DS824_PRES TD9636_LAT TD9636_LON TD9636_STAGE TD9636_WIND TD9636_PRES TD9635_LAT TD9635_LON TD9635_WIND TD9635_PRES TD9635_ROCI NEUMANN_LAT NEUMANN_LON NEUMANN_CLASS NEUMANN_WIND NEUMANN_PRES MLC_LAT MLC_LON MLC_CLASS MLC_WIND MLC_PRES USA_GUST BOM_GUST BOM_GUST_PER REUNION_GUST REUNION_GUST_PER USA_SEAHGT USA_SEARAD_NE USA_SEARAD_SE USA_SEARAD_SW USA_SEARAD_NW STORM_SPEED STORM_DIR
1948347N08136 1948 92 WP MM NOT_NAMED 1948-12-12 06:00:00 TS 8.00000 135.700 main 974 937 O________O_O__ jtwc_wp WP261948 8.00000 135.700 25 -1 8.00000 135.700 TC 25 8.00000 135.700 25 1004 180 13 269
1948347N08136 1948 92 WP MM NOT_NAMED 1948-12-12 09:00:00 TS 7.99274 135.045 main 926 860 P________P_P__ WP261948 7.99274 135.045 25 -1 7.99274 135.045 TC 25 7.99274 135.045 25 1004 180 13 270
1948347N08136 1948 92 WP MM NOT_NAMED 1948-12-12 12:00:00 TS 8.00000 134.400 main 860 794 O________OOO__ jtwc_wp WP261948 8.00000 134.400 25 -1 8.00000 134.400 TC 25 8.00000 134.400 1 25 8.00000 134.400 25 1004 180 13 272
1948347N08136 1948 92 WP MM NOT_NAMED 1948-12-12 15:00:00 TS 8.03981 133.754 main 794 717 P________PPP__ WP261948 8.03482 133.765 27 -1 8.03482 133.765 TC 27 8.06972 133.689 1 27 8.03482 133.765 27 1003 180 13 275
1948347N08136 1948 92 WP MM NOT_NAMED 1948-12-12 18:00:00 TS 8.10821 133.077 main 717 641 O________OPO__ jtwc_wp WP261948 8.10000 133.100 30 -1 8.10000 133.100 TC 30 8.14105 132.983 1 30 8.10000 133.100 30 1003 180 14 276
1948347N08136 1948 92 WP MM NOT_NAMED 1948-12-12 21:00:00 TS 8.19857 132.339 main 630 555 P________PPP__ WP261948 8.19248 132.358 32 -1 8.19248 132.358 TC 32 8.21685 132.285 1 32 8.19248 132.358 32 1002 180 15 277
1948347N08136 1948 92 WP MM NOT_NAMED 1948-12-13 00:00:00 TS 8.30000 131.600 main 555 480 O________OOO__ jtwc_wp WP261948 8.30000 131.600 35 0 8.30000 131.600 TC 35 8.30000 131.600 2 35 8.30000 131.600 35 1002 180 14 278
1948347N08136 1948 92 WP MM NOT_NAMED 1948-12-13 03:00:00 TS 8.39280 130.891 main 480 417 P________PPP__ WP261948 8.39241 130.877 37 0 8.39241 130.877 TC 37 8.39398 130.931 2 36 8.39241 130.877 37 1001 180 14 278
1948347N08136 1948 92 WP MM NOT_NAMED 1948-12-13 06:00:00 TS 8.50112 130.219 main 406 345 O________OPO__ jtwc_wp WP261948 8.50000 130.200 40 0 8.50000 130.200 TC 40 8.50450 130.277 2 37 8.50000 130.200 40 1001 180 13 280
1948347N08136 1948 92 WP MM NOT_NAMED 1948-12-13 09:00:00 TS 8.62994 129.597 main 345 291 P________PPP__ WP261948 8.62733 129.585 40 0 8.62733 129.585 TC 40 8.63776 129.634 2 38 8.62733 129.585 40 1000 180 12 284
1948347N08136 1948 92 WP MM NOT_NAMED 1948-12-13 12:00:00 TS 8.80000 129.000 main 291 231 O________OOO__ jtwc_wp WP261948 8.80000 129.000 40 0 8.80000 129.000 TC 40 8.80000 129.000 2 40 8.80000 129.000 40 1000 180 13 288
1948347N08136 1948 92 WP MM NOT_NAMED 1948-12-13 15:00:00 TS 9.02568 128.397 main 231 174 P________PPP__ WP261948 9.04237 128.408 40 0 9.04237 128.408 TC 40 8.97562 128.364 2 40 9.04237 128.408 40 999 180 13 291
1948347N08136 1948 92 WP MM NOT_NAMED 1948-12-13 18:00:00 TS 9.27052 127.784 main 174 114 O________OPO__ jtwc_wp WP261948 9.30000 127.800 40 0 9.30000 127.800 TC 40 9.18209 127.735 2 40 9.30000 127.800 40 998 180 13 290
1948347N08136 1948 92 WP MM NOT_NAMED 1948-12-13 21:00:00 TS 9.47494 127.146 main 104 59 P________PPP__ WP261948 9.49242 127.157 40 0 9.49242 127.157 TC 40 9.42251 127.113 2 40 9.49242 127.157 40 997 180 13 289
1948347N08136 1948 92 WP MM NOT_NAMED 1948-12-14 00:00:00 TS 9.70000 126.500 main 59 35 O________OOO__ jtwc_wp WP261948 9.70000 126.500 40 0 9.70000 126.500 TC 40 9.70000 126.500 2 40 9.70000 126.500 40 997 180 14 292
1948347N08136 1948 92 WP MM NOT_NAMED 1948-12-14 03:00:00 TS 9.97779 125.853 main 47 0 P________PPP__ WP261948 9.96996 125.835 37 0 9.96996 125.835 TC 37 10.0013 125.909 2 37 9.96996 125.835 37 997 180 14 296
1948347N08136 1948 92 WP MM NOT_NAMED 1948-12-14 06:00:00 TS 10.3098 125.230 main 0 0 O________OPO__ jtwc_wp WP261948 10.3000 125.200 35 0 10.3000 125.200 TC 35 10.3392 125.322 2 35 10.3000 125.200 35 997 180 14 301
1948347N08136 1948 92 WP MM NOT_NAMED 1948-12-14 09:00:00 TS 10.6849 124.657 main 10 0 P________PPP__ WP261948 10.6773 124.635 32 -1 10.6773 124.635 TC 32 10.7075 124.724 2 32 10.6773 124.635 32 998 180 14 305
1948347N08136 1948 92 WP MM NOT_NAMED 1948-12-14 12:00:00 TS 11.1000 124.100 main 10 0 O________OOO__ jtwc_wp WP261948 11.1000 124.100 30 -1 11.1000 124.100 TC 30 11.1000 124.100 1 30 11.1000 124.100 30 999 180 14 309
1948347N08136 1948 92 WP MM NOT_NAMED 1948-12-14 15:00:00 TS 11.5513 123.548 main 40 0 P________PPP__ WP261948 11.5496 123.595 27 -1 11.5496 123.595 TC 27 11.5564 123.409 1 28 11.5496 123.595 27 1000 180 15 308
1948347N08136 1948 92 WP MM NOT_NAMED 1948-12-14 18:00:00 TS 12.0063 122.924 main 39 39 O________OPO__ jtwc_wp WP261948 12.0000 123.000 25 -1 12.0000 123.000 TC 25 12.0252 122.694 1 27 12.0000 123.000 25 1001 180 17 303
1948347N08136 1948 92 WP MM NOT_NAMED 1948-12-14 21:00:00 TS 12.4538 122.108 main 55 0 P________PPP__ WP261948 12.4530 122.150 25 -1 12.4530 122.150 TC 25 12.4564 121.981 1 26 12.4530 122.150 25 1001 180 18 297
1948347N08136 1948 92 WP MM NOT_NAMED 1948-12-15 00:00:00 TS 12.8000 121.300 main 0 0 O________OOO__ jtwc_wp WP261948 12.8000 121.300 25 -1 12.8000 121.300 TC 25 12.8000 121.300 1 25 12.8000 121.300 25 1002 180 15 290
1948347N08136 1948 92 WP MM NOT_NAMED 1948-12-15 03:00:00 TS 12.9596 120.706 main 10 10 P________PPP__ WP261948 12.9445 120.712 27 -1 12.9445 120.712 TC 27 13.0048 120.688 1 26 12.9445 120.712 27 1002 180 11 282
1948347N08136 1948 92 WP MM NOT_NAMED 1948-12-15 06:00:00 TS 13.0297 120.178 main 39 39 O________OPO__ jtwc_wp WP261948 13.0000 120.200 30 -1 13.0000 120.200 TC 30 13.1189 120.111 1 27 13.0000 120.200 30 1002 180 11 279
1948347N08136 1948 92 WP MM NOT_NAMED 1948-12-15 09:00:00 TS 13.1296 119.589 main 82 82 P________PPP__ WP261948 13.1150 119.600 30 -1 13.1150 119.600 TC 30 13.1736 119.554 1 28 13.1150 119.600 30 1002 180 12 278
1948347N08136 1948 92 WP MM NOT_NAMED 1948-12-15 12:00:00 TS 13.2000 119.000 main 142 142 O________OOO__ jtwc_wp WP261948 13.2000 119.000 30 -1 13.2000 119.000 TC 30 13.2000 119.000 1 30 13.2000 119.000 30 1003 180 11 274
1948347N08136 1948 92 WP MM NOT_NAMED 1948-12-15 15:00:00 TS 13.2114 118.446 main 206 206 P________PPP__ WP261948 13.2073 118.450 30 -1 13.2073 118.450 TC 30 13.2236 118.436 1 31 13.2073 118.450 30 1002 180 11 271
1948347N08136 1948 92 WP MM NOT_NAMED 1948-12-15 18:00:00 TS 13.2122 117.891 main 260 260 O________OPO__ jtwc_wp WP261948 13.2000 117.900 30 -1 13.2000 117.900 TC 30 13.2488 117.863 1 32 13.2000 117.900 30 1002 180 11 272
1948347N08136 1948 92 WP MM NOT_NAMED 1948-12-15 21:00:00 TS 13.2452 117.305 main 319 319 P________PPP__ WP261948 13.2354 117.313 32 -1 13.2354 117.313 TC 32 13.2746 117.283 1 33 13.2354 117.313 32 1002 180 12 274
1948347N08136 1948 92 WP MM NOT_NAMED 1948-12-16 00:00:00 TS 13.3000 116.700 main 376 O________OOO__ jtwc_wp WP261948 13.3000 116.700 35 0 13.3000 116.700 TC 35 13.3000 116.700 2 35 13.3000 116.700 35 1002 180 12 275

Digital Typhoon Data and Search

About IBTrACS Database

This database is a web-friendly format of International Best Track Archive for Climate Stewardship (IBTrACS), a global best track data archive curated by NOAA dating back to 1842.

Updated: 2021-11-26